sensor_id;sensor_type;location;lat;lon;timestamp;temperature;humidity
64951;DHT22;51482;47.014;7.652;2022-09-28T00:00:07;10.10;99.90
64951;DHT22;51482;47.014;7.652;2022-09-28T00:02:33;10.20;99.90
64951;DHT22;51482;47.014;7.652;2022-09-28T00:05:00;10.60;99.90
64951;DHT22;51482;47.014;7.652;2022-09-28T00:07:27;10.20;99.90
64951;DHT22;51482;47.014;7.652;2022-09-28T00:09:52;10.90;99.90
64951;DHT22;51482;47.014;7.652;2022-09-28T00:12:18;10.90;99.90
64951;DHT22;51482;47.014;7.652;2022-09-28T00:14:45;10.20;99.90
64951;DHT22;51482;47.014;7.652;2022-09-28T00:17:10;10.10;99.90
64951;DHT22;51482;47.014;7.652;2022-09-28T00:19:37;10.60;99.90
64951;DHT22;51482;47.014;7.652;2022-09-28T00:22:04;10.90;99.90
64951;DHT22;51482;47.014;7.652;2022-09-28T00:24:30;10.30;99.90
64951;DHT22;51482;47.014;7.652;2022-09-28T00:26:57;10.30;99.90
64951;DHT22;51482;47.014;7.652;2022-09-28T00:29:30;10.30;99.90
64951;DHT22;51482;47.014;7.652;2022-09-28T00:32:02;10.90;99.90
64951;DHT22;51482;47.014;7.652;2022-09-28T00:34:30;10.70;99.90
64951;DHT22;51482;47.014;7.652;2022-09-28T00:36:57;10.30;99.90
64951;DHT22;51482;47.014;7.652;2022-09-28T00:39:22;10.30;99.90
64951;DHT22;51482;47.014;7.652;2022-09-28T00:41:49;10.30;99.90
64951;DHT22;51482;47.014;7.652;2022-09-28T00:52:52;10.30;99.90
64951;DHT22;51482;47.014;7.652;2022-09-28T00:55:24;10.30;99.90
64951;DHT22;51482;47.014;7.652;2022-09-28T00:57:54;10.80;99.90
64951;DHT22;51482;47.014;7.652;2022-09-28T01:00:21;10.70;99.90
64951;DHT22;51482;47.014;7.652;2022-09-28T01:02:47;10.30;99.90
64951;DHT22;51482;47.014;7.652;2022-09-28T01:05:13;11.00;99.90
64951;DHT22;51482;47.014;7.652;2022-09-28T01:07:40;10.70;99.90
64951;DHT22;51482;47.014;7.652;2022-09-28T01:10:07;10.20;99.90
64951;DHT22;51482;47.014;7.652;2022-09-28T01:12:33;10.30;99.90
64951;DHT22;51482;47.014;7.652;2022-09-28T01:14:59;10.20;99.90
64951;DHT22;51482;47.014;7.652;2022-09-28T01:17:43;10.20;99.90
64951;DHT22;51482;47.014;7.652;2022-09-28T01:20:31;10.10;99.90
64951;DHT22;51482;47.014;7.652;2022-09-28T01:23:36;10.10;99.90
64951;DHT22;51482;47.014;7.652;2022-09-28T01:27:00;10.00;99.90
64951;DHT22;51482;47.014;7.652;2022-09-28T01:29:36;10.10;99.90
64951;DHT22;51482;47.014;7.652;2022-09-28T01:34:50;10.20;99.90
64951;DHT22;51482;47.014;7.652;2022-09-28T01:37:18;10.80;99.90
64951;DHT22;51482;47.014;7.652;2022-09-28T01:39:47;10.70;99.90
64951;DHT22;51482;47.014;7.652;2022-09-28T01:42:26;10.10;99.90
64951;DHT22;51482;47.014;7.652;2022-09-28T01:44:57;10.60;99.90
64951;DHT22;51482;47.014;7.652;2022-09-28T01:47:26;10.20;99.90
64951;DHT22;51482;47.014;7.652;2022-09-28T01:50:05;10.20;99.90
64951;DHT22;51482;47.014;7.652;2022-09-28T01:52:44;10.20;99.90
64951;DHT22;51482;47.014;7.652;2022-09-28T01:55:28;10.20;99.90
64951;DHT22;51482;47.014;7.652;2022-09-28T01:58:11;10.20;99.90
64951;DHT22;51482;47.014;7.652;2022-09-28T02:00:41;10.10;99.90
64951;DHT22;51482;47.014;7.652;2022-09-28T02:03:23;10.80;99.90
64951;DHT22;51482;47.014;7.652;2022-09-28T02:05:54;10.90;99.90
64951;DHT22;51482;47.014;7.652;2022-09-28T02:11:13;10.10;99.90
64951;DHT22;51482;47.014;7.652;2022-09-28T02:13:49;10.70;99.90
64951;DHT22;51482;47.014;7.652;2022-09-28T02:16:32;10.10;99.90
64951;DHT22;51482;47.014;7.652;2022-09-28T02:19:00;10.20;99.90
64951;DHT22;51482;47.014;7.652;2022-09-28T02:21:53;10.70;99.90
64951;DHT22;51482;47.014;7.652;2022-09-28T02:24:43;10.00;99.90
64951;DHT22;51482;47.014;7.652;2022-09-28T02:29:56;10.00;99.90
64951;DHT22;51482;47.014;7.652;2022-09-28T02:32:23;10.70;99.90
64951;DHT22;51482;47.014;7.652;2022-09-28T02:34:49;10.30;99.90
64951;DHT22;51482;47.014;7.652;2022-09-28T02:37:15;10.70;99.90
64951;DHT22;51482;47.014;7.652;2022-09-28T02:39:40;10.10;99.90
64951;DHT22;51482;47.014;7.652;2022-09-28T02:42:19;10.60;99.90
64951;DHT22;51482;47.014;7.652;2022-09-28T02:47:51;10.10;99.90
64951;DHT22;51482;47.014;7.652;2022-09-28T03:03:54;10.00;99.90
64951;DHT22;51482;47.014;7.652;2022-09-28T03:06:38;10.50;99.90
64951;DHT22;51482;47.014;7.652;2022-09-28T03:09:17;10.00;99.90
64951;DHT22;51482;47.014;7.652;2022-09-28T03:12:11;10.50;99.90
64951;DHT22;51482;47.014;7.652;2022-09-28T03:14:38;10.60;99.90
64951;DHT22;51482;47.014;7.652;2022-09-28T03:17:03;10.10;99.90
64951;DHT22;51482;47.014;7.652;2022-09-28T03:19:31;9.70;99.90
64951;DHT22;51482;47.014;7.652;2022-09-28T03:21:57;9.20;99.90
64951;DHT22;51482;47.014;7.652;2022-09-28T03:24:24;9.50;99.90
64951;DHT22;51482;47.014;7.652;2022-09-28T03:26:49;9.40;99.90
64951;DHT22;51482;47.014;7.652;2022-09-28T03:29:15;10.00;99.90
64951;DHT22;51482;47.014;7.652;2022-09-28T03:31:41;10.00;99.90
64951;DHT22;51482;47.014;7.652;2022-09-28T03:34:08;10.70;99.90
64951;DHT22;51482;47.014;7.652;2022-09-28T03:36:34;10.50;99.90
64951;DHT22;51482;47.014;7.652;2022-09-28T03:38:59;10.00;99.90
64951;DHT22;51482;47.014;7.652;2022-09-28T03:41:25;9.90;99.90
64951;DHT22;51482;47.014;7.652;2022-09-28T03:43:54;10.70;99.90
64951;DHT22;51482;47.014;7.652;2022-09-28T03:46:20;10.50;99.90
64951;DHT22;51482;47.014;7.652;2022-09-28T03:48:45;10.80;99.90
64951;DHT22;51482;47.014;7.652;2022-09-28T03:51:11;9.90;99.90
64951;DHT22;51482;47.014;7.652;2022-09-28T03:53:37;9.90;99.90
64951;DHT22;51482;47.014;7.652;2022-09-28T03:56:09;10.70;99.90
64951;DHT22;51482;47.014;7.652;2022-09-28T03:58:36;10.00;99.90
64951;DHT22;51482;47.014;7.652;2022-09-28T04:01:07;10.70;99.90
64951;DHT22;51482;47.014;7.652;2022-09-28T04:03:33;10.10;99.90
64951;DHT22;51482;47.014;7.652;2022-09-28T04:05:59;10.60;99.90
64951;DHT22;51482;47.014;7.652;2022-09-28T04:08:25;10.60;99.90
64951;DHT22;51482;47.014;7.652;2022-09-28T04:10:50;10.70;99.90
64951;DHT22;51482;47.014;7.652;2022-09-28T04:13:16;9.90;99.90
64951;DHT22;51482;47.014;7.652;2022-09-28T04:15:42;10.00;99.90
64951;DHT22;51482;47.014;7.652;2022-09-28T04:18:16;10.50;99.90
64951;DHT22;51482;47.014;7.652;2022-09-28T04:20:41;10.70;99.90
64951;DHT22;51482;47.014;7.652;2022-09-28T04:23:10;10.10;99.90
64951;DHT22;51482;47.014;7.652;2022-09-28T04:25:35;10.10;99.90
64951;DHT22;51482;47.014;7.652;2022-09-28T04:28:01;10.70;99.90
64951;DHT22;51482;47.014;7.652;2022-09-28T04:30:46;10.10;99.90
64951;DHT22;51482;47.014;7.652;2022-09-28T04:33:12;10.60;99.90
64951;DHT22;51482;47.014;7.652;2022-09-28T04:35:37;10.70;99.90
64951;DHT22;51482;47.014;7.652;2022-09-28T04:38:03;10.70;99.90
64951;DHT22;51482;47.014;7.652;2022-09-28T04:40:29;10.50;99.90
64951;DHT22;51482;47.014;7.652;2022-09-28T04:42:55;10.10;99.90
64951;DHT22;51482;47.014;7.652;2022-09-28T04:45:22;10.10;99.90
64951;DHT22;51482;47.014;7.652;2022-09-28T04:47:47;9.90;99.90
64951;DHT22;51482;47.014;7.652;2022-09-28T04:50:13;10.10;99.90
64951;DHT22;51482;47.014;7.652;2022-09-28T04:52:39;10.10;99.90
64951;DHT22;51482;47.014;7.652;2022-09-28T04:55:05;10.60;99.90
64951;DHT22;51482;47.014;7.652;2022-09-28T04:57:33;10.10;99.90
64951;DHT22;51482;47.014;7.652;2022-09-28T04:59:59;10.40;99.90
64951;DHT22;51482;47.014;7.652;2022-09-28T05:02:25;10.10;99.90
64951;DHT22;51482;47.014;7.652;2022-09-28T05:04:52;10.60;99.90
64951;DHT22;51482;47.014;7.652;2022-09-28T05:07:19;10.10;99.90
64951;DHT22;51482;47.014;7.652;2022-09-28T05:09:45;10.10;99.90
64951;DHT22;51482;47.014;7.652;2022-09-28T05:12:10;10.70;99.90
64951;DHT22;51482;47.014;7.652;2022-09-28T05:14:36;10.70;99.90
64951;DHT22;51482;47.014;7.652;2022-09-28T05:17:02;10.10;99.90
64951;DHT22;51482;47.014;7.652;2022-09-28T05:19:27;10.70;99.90
64951;DHT22;51482;47.014;7.652;2022-09-28T05:21:54;10.70;99.90
64951;DHT22;51482;47.014;7.652;2022-09-28T05:24:22;10.20;99.90
64951;DHT22;51482;47.014;7.652;2022-09-28T05:26:48;10.70;99.90
64951;DHT22;51482;47.014;7.652;2022-09-28T05:29:13;10.30;99.90
64951;DHT22;51482;47.014;7.652;2022-09-28T05:31:39;9.60;99.90
64951;DHT22;51482;47.014;7.652;2022-09-28T05:34:04;10.20;99.90
64951;DHT22;51482;47.014;7.652;2022-09-28T05:36:30;10.20;99.90
64951;DHT22;51482;47.014;7.652;2022-09-28T05:38:57;10.10;99.90
64951;DHT22;51482;47.014;7.652;2022-09-28T05:41:22;10.60;99.90
64951;DHT22;51482;47.014;7.652;2022-09-28T05:43:48;10.10;99.90
64951;DHT22;51482;47.014;7.652;2022-09-28T05:46:16;10.10;99.90
64951;DHT22;51482;47.014;7.652;2022-09-28T05:48:42;10.00;99.90
64951;DHT22;51482;47.014;7.652;2022-09-28T05:51:08;11.00;99.90
64951;DHT22;51482;47.014;7.652;2022-09-28T05:53:34;10.60;99.90
64951;DHT22;51482;47.014;7.652;2022-09-28T05:56:00;9.90;99.90
64951;DHT22;51482;47.014;7.652;2022-09-28T05:58:26;9.90;99.90
64951;DHT22;51482;47.014;7.652;2022-09-28T06:00:54;9.80;99.90
64951;DHT22;51482;47.014;7.652;2022-09-28T06:03:20;10.30;99.90
64951;DHT22;51482;47.014;7.652;2022-09-28T06:05:45;10.40;99.90
64951;DHT22;51482;47.014;7.652;2022-09-28T06:08:11;9.70;99.90
64951;DHT22;51482;47.014;7.652;2022-09-28T06:10:37;9.70;99.90
64951;DHT22;51482;47.014;7.652;2022-09-28T06:13:04;9.70;99.90
64951;DHT22;51482;47.014;7.652;2022-09-28T06:15:32;9.70;99.90
64951;DHT22;51482;47.014;7.652;2022-09-28T06:18:03;9.70;99.90
64951;DHT22;51482;47.014;7.652;2022-09-28T06:20:32;9.80;99.90
64951;DHT22;51482;47.014;7.652;2022-09-28T06:22:58;9.50;99.90
64951;DHT22;51482;47.014;7.652;2022-09-28T06:25:24;10.40;99.90
64951;DHT22;51482;47.014;7.652;2022-09-28T06:28:00;10.00;99.90
64951;DHT22;51482;47.014;7.652;2022-09-28T06:30:27;10.60;99.90
64951;DHT22;51482;47.014;7.652;2022-09-28T06:32:54;10.00;99.90
64951;DHT22;51482;47.014;7.652;2022-09-28T06:35:21;10.30;99.90
64951;DHT22;51482;47.014;7.652;2022-09-28T06:37:47;10.60;99.90
64951;DHT22;51482;47.014;7.652;2022-09-28T06:40:13;10.10;99.90
64951;DHT22;51482;47.014;7.652;2022-09-28T06:42:38;10.00;99.90
64951;DHT22;51482;47.014;7.652;2022-09-28T06:45:05;10.80;99.90
64951;DHT22;51482;47.014;7.652;2022-09-28T06:47:31;10.10;99.90
64951;DHT22;51482;47.014;7.652;2022-09-28T06:49:58;9.60;99.90
64951;DHT22;51482;47.014;7.652;2022-09-28T06:52:23;10.70;99.90
64951;DHT22;51482;47.014;7.652;2022-09-28T06:54:50;10.70;99.90
64951;DHT22;51482;47.014;7.652;2022-09-28T06:57:15;10.60;99.90
64951;DHT22;51482;47.014;7.652;2022-09-28T06:59:41;10.90;99.90
64951;DHT22;51482;47.014;7.652;2022-09-28T07:02:09;10.20;99.90
64951;DHT22;51482;47.014;7.652;2022-09-28T07:04:36;10.90;99.90
64951;DHT22;51482;47.014;7.652;2022-09-28T07:07:04;10.30;99.90
64951;DHT22;51482;47.014;7.652;2022-09-28T07:09:30;10.90;99.90
64951;DHT22;51482;47.014;7.652;2022-09-28T07:11:57;10.40;99.90
64951;DHT22;51482;47.014;7.652;2022-09-28T07:14:23;11.00;99.90
64951;DHT22;51482;47.014;7.652;2022-09-28T07:16:49;10.60;99.90
64951;DHT22;51482;47.014;7.652;2022-09-28T07:19:14;10.70;99.90
64951;DHT22;51482;47.014;7.652;2022-09-28T07:21:40;12.00;99.90
64951;DHT22;51482;47.014;7.652;2022-09-28T07:24:06;11.30;99.90
64951;DHT22;51482;47.014;7.652;2022-09-28T07:26:32;11.30;99.90
64951;DHT22;51482;47.014;7.652;2022-09-28T07:28:58;10.90;99.90
64951;DHT22;51482;47.014;7.652;2022-09-28T07:31:23;11.40;99.90
64951;DHT22;51482;47.014;7.652;2022-09-28T07:33:49;11.00;99.90
64951;DHT22;51482;47.014;7.652;2022-09-28T07:36:15;11.70;99.90
64951;DHT22;51482;47.014;7.652;2022-09-28T07:38:42;11.70;99.90
64951;DHT22;51482;47.014;7.652;2022-09-28T07:41:08;11.80;99.90
64951;DHT22;51482;47.014;7.652;2022-09-28T07:43:37;11.80;99.90
64951;DHT22;51482;47.014;7.652;2022-09-28T07:46:06;12.00;99.90
64951;DHT22;51482;47.014;7.652;2022-09-28T07:48:38;12.00;99.90
64951;DHT22;51482;47.014;7.652;2022-09-28T07:51:05;12.00;99.90
64951;DHT22;51482;47.014;7.652;2022-09-28T07:53:31;11.80;99.90
64951;DHT22;51482;47.014;7.652;2022-09-28T07:55:58;12.10;99.90
64951;DHT22;51482;47.014;7.652;2022-09-28T07:58:33;12.20;99.90
64951;DHT22;51482;47.014;7.652;2022-09-28T08:01:03;11.90;99.90
64951;DHT22;51482;47.014;7.652;2022-09-28T08:03:28;12.40;99.90
64951;DHT22;51482;47.014;7.652;2022-09-28T08:05:59;12.40;99.90
64951;DHT22;51482;47.014;7.652;2022-09-28T08:08:24;11.80;99.90
64951;DHT22;51482;47.014;7.652;2022-09-28T08:10:51;11.90;99.90
64951;DHT22;51482;47.014;7.652;2022-09-28T08:13:17;11.90;99.90
64951;DHT22;51482;47.014;7.652;2022-09-28T08:15:44;11.90;99.90
64951;DHT22;51482;47.014;7.652;2022-09-28T08:18:10;11.90;99.90
64951;DHT22;51482;47.014;7.652;2022-09-28T08:20:36;12.40;99.90
64951;DHT22;51482;47.014;7.652;2022-09-28T08:23:20;11.90;99.90
64951;DHT22;51482;47.014;7.652;2022-09-28T08:25:46;12.00;99.90
64951;DHT22;51482;47.014;7.652;2022-09-28T08:28:16;12.70;99.90
64951;DHT22;51482;47.014;7.652;2022-09-28T08:30:43;12.20;99.90
64951;DHT22;51482;47.014;7.652;2022-09-28T08:33:13;12.50;99.90
64951;DHT22;51482;47.014;7.652;2022-09-28T08:35:39;12.10;99.90
64951;DHT22;51482;47.014;7.652;2022-09-28T08:38:07;12.70;99.90
64951;DHT22;51482;47.014;7.652;2022-09-28T08:43:51;12.20;99.90
64951;DHT22;51482;47.014;7.652;2022-09-28T08:46:21;12.40;99.90
64951;DHT22;51482;47.014;7.652;2022-09-28T08:48:52;12.70;99.90
64951;DHT22;51482;47.014;7.652;2022-09-28T08:51:39;12.80;99.90
64951;DHT22;51482;47.014;7.652;2022-09-28T08:54:37;12.90;99.90
64951;DHT22;51482;47.014;7.652;2022-09-28T08:59:54;12.30;99.90
64951;DHT22;51482;47.014;7.652;2022-09-28T09:02:27;12.30;99.90
64951;DHT22;51482;47.014;7.652;2022-09-28T09:04:54;12.30;99.90
64951;DHT22;51482;47.014;7.652;2022-09-28T09:10:12;12.20;99.90
64951;DHT22;51482;47.014;7.652;2022-09-28T09:15:51;12.30;99.90
64951;DHT22;51482;47.014;7.652;2022-09-28T09:18:35;12.30;99.90
64951;DHT22;51482;47.014;7.652;2022-09-28T09:23:55;12.40;99.90
64951;DHT22;51482;47.014;7.652;2022-09-28T09:26:35;11.90;99.90
64951;DHT22;51482;47.014;7.652;2022-09-28T09:34:30;12.70;99.90
64951;DHT22;51482;47.014;7.652;2022-09-28T09:45:43;12.90;99.90
64951;DHT22;51482;47.014;7.652;2022-09-28T09:48:17;13.10;99.90
64951;DHT22;51482;47.014;7.652;2022-09-28T09:50:50;14.10;99.90
64951;DHT22;51482;47.014;7.652;2022-09-28T09:55:55;13.30;99.90
64951;DHT22;51482;47.014;7.652;2022-09-28T09:58:29;13.30;99.90
64951;DHT22;51482;47.014;7.652;2022-09-28T10:01:05;13.20;99.90
64951;DHT22;51482;47.014;7.652;2022-09-28T10:03:33;12.70;99.90
64951;DHT22;51482;47.014;7.652;2022-09-28T10:06:27;13.30;99.90
64951;DHT22;51482;47.014;7.652;2022-09-28T10:09:00;13.30;99.90
64951;DHT22;51482;47.014;7.652;2022-09-28T10:11:32;13.40;99.90
64951;DHT22;51482;47.014;7.652;2022-09-28T10:14:00;13.50;99.90
64951;DHT22;51482;47.014;7.652;2022-09-28T10:16:26;13.90;99.90
64951;DHT22;51482;47.014;7.652;2022-09-28T10:18:51;13.50;99.90
64951;DHT22;51482;47.014;7.652;2022-09-28T10:21:19;13.60;99.90
64951;DHT22;51482;47.014;7.652;2022-09-28T10:23:49;13.70;99.90
64951;DHT22;51482;47.014;7.652;2022-09-28T10:26:23;13.60;99.90
64951;DHT22;51482;47.014;7.652;2022-09-28T10:28:56;13.70;99.90
64951;DHT22;51482;47.014;7.652;2022-09-28T10:31:46;13.70;99.90
64951;DHT22;51482;47.014;7.652;2022-09-28T10:34:18;13.70;99.90
64951;DHT22;51482;47.014;7.652;2022-09-28T10:36:51;14.10;99.90
64951;DHT22;51482;47.014;7.652;2022-09-28T10:39:28;13.60;99.90
64951;DHT22;51482;47.014;7.652;2022-09-28T10:41:56;13.70;99.90
64951;DHT22;51482;47.014;7.652;2022-09-28T10:44:24;13.70;99.90
64951;DHT22;51482;47.014;7.652;2022-09-28T10:46:59;13.70;99.90
64951;DHT22;51482;47.014;7.652;2022-09-28T10:49:25;14.10;99.90
64951;DHT22;51482;47.014;7.652;2022-09-28T10:51:53;14.40;99.90
64951;DHT22;51482;47.014;7.652;2022-09-28T10:54:23;13.70;99.90
64951;DHT22;51482;47.014;7.652;2022-09-28T10:56:51;14.20;99.90
64951;DHT22;51482;47.014;7.652;2022-09-28T11:02:12;14.00;99.90
64951;DHT22;51482;47.014;7.652;2022-09-28T11:04:42;13.70;99.90
64951;DHT22;51482;47.014;7.652;2022-09-28T11:07:18;13.90;99.90
64951;DHT22;51482;47.014;7.652;2022-09-28T11:09:48;14.10;99.90
64951;DHT22;51482;47.014;7.652;2022-09-28T11:12:25;13.50;99.90
64951;DHT22;51482;47.014;7.652;2022-09-28T11:14:59;13.50;99.90
64951;DHT22;51482;47.014;7.652;2022-09-28T11:17:38;14.50;99.90
64951;DHT22;51482;47.014;7.652;2022-09-28T11:22:54;13.40;99.90
64951;DHT22;51482;47.014;7.652;2022-09-28T11:25:22;13.80;99.90
64951;DHT22;51482;47.014;7.652;2022-09-28T11:30:24;13.40;99.90
64951;DHT22;51482;47.014;7.652;2022-09-28T11:32:53;13.40;99.90
64951;DHT22;51482;47.014;7.652;2022-09-28T11:35:30;14.10;99.90
64951;DHT22;51482;47.014;7.652;2022-09-28T11:38:11;13.90;99.90
64951;DHT22;51482;47.014;7.652;2022-09-28T11:41:05;13.40;99.90
64951;DHT22;51482;47.014;7.652;2022-09-28T11:43:50;13.40;99.90
64951;DHT22;51482;47.014;7.652;2022-09-28T11:49:16;13.30;99.90
64951;DHT22;51482;47.014;7.652;2022-09-28T11:51:47;13.30;99.90
64951;DHT22;51482;47.014;7.652;2022-09-28T11:54:36;14.00;99.90
64951;DHT22;51482;47.014;7.652;2022-09-28T11:57:03;13.20;99.90
64951;DHT22;51482;47.014;7.652;2022-09-28T11:59:33;13.00;99.90
64951;DHT22;51482;47.014;7.652;2022-09-28T12:02:22;13.50;99.90
64951;DHT22;51482;47.014;7.652;2022-09-28T12:04:57;13.60;99.90
64951;DHT22;51482;47.014;7.652;2022-09-28T12:07:28;13.90;99.90
64951;DHT22;51482;47.014;7.652;2022-09-28T12:12:48;13.10;99.90
64951;DHT22;51482;47.014;7.652;2022-09-28T12:15:45;12.50;99.90
64951;DHT22;51482;47.014;7.652;2022-09-28T12:18:23;12.40;99.90
64951;DHT22;51482;47.014;7.652;2022-09-28T12:21:18;12.30;99.90
64951;DHT22;51482;47.014;7.652;2022-09-28T12:23:48;12.20;99.90
64951;DHT22;51482;47.014;7.652;2022-09-28T12:26:27;12.60;99.90
64951;DHT22;51482;47.014;7.652;2022-09-28T12:28:59;11.90;99.90
64951;DHT22;51482;47.014;7.652;2022-09-28T12:32:01;12.50;99.90
64951;DHT22;51482;47.014;7.652;2022-09-28T12:34:28;11.90;99.90
64951;DHT22;51482;47.014;7.652;2022-09-28T12:53:38;12.00;99.90
64951;DHT22;51482;47.014;7.652;2022-09-28T12:59:03;12.00;99.90
64951;DHT22;51482;47.014;7.652;2022-09-28T13:07:22;11.90;99.90
64951;DHT22;51482;47.014;7.652;2022-09-28T13:10:01;11.90;99.90
64951;DHT22;51482;47.014;7.652;2022-09-28T13:18:34;12.80;99.90
64951;DHT22;51482;47.014;7.652;2022-09-28T13:21:46;11.80;99.90
64951;DHT22;51482;47.014;7.652;2022-09-28T13:24:23;11.80;99.90
64951;DHT22;51482;47.014;7.652;2022-09-28T13:26:52;11.80;99.90
64951;DHT22;51482;47.014;7.652;2022-09-28T13:29:19;11.70;99.90
64951;DHT22;51482;47.014;7.652;2022-09-28T13:31:49;12.20;99.90
64951;DHT22;51482;47.014;7.652;2022-09-28T13:34:25;11.70;99.90
64951;DHT22;51482;47.014;7.652;2022-09-28T13:42:19;11.70;99.90
64951;DHT22;51482;47.014;7.652;2022-09-28T13:45:07;11.80;99.90
64951;DHT22;51482;47.014;7.652;2022-09-28T13:48:16;12.30;99.90
64951;DHT22;51482;47.014;7.652;2022-09-28T13:59:24;12.10;99.90
64951;DHT22;51482;47.014;7.652;2022-09-28T14:04:56;11.70;99.90
64951;DHT22;51482;47.014;7.652;2022-09-28T14:10:19;11.50;99.90
64951;DHT22;51482;47.014;7.652;2022-09-28T14:12:52;11.50;99.90
64951;DHT22;51482;47.014;7.652;2022-09-28T14:18:03;12.40;99.90
64951;DHT22;51482;47.014;7.652;2022-09-28T14:20:33;12.00;99.90
64951;DHT22;51482;47.014;7.652;2022-09-28T14:23:17;11.90;99.90
64951;DHT22;51482;47.014;7.652;2022-09-28T14:26:00;11.50;99.90
64951;DHT22;51482;47.014;7.652;2022-09-28T14:28:43;11.50;99.90
64951;DHT22;51482;47.014;7.652;2022-09-28T14:31:21;11.60;99.90
64951;DHT22;51482;47.014;7.652;2022-09-28T14:33:59;11.60;99.90
64951;DHT22;51482;47.014;7.652;2022-09-28T14:36:39;12.60;99.90
64951;DHT22;51482;47.014;7.652;2022-09-28T14:39:30;11.50;99.90
64951;DHT22;51482;47.014;7.652;2022-09-28T14:42:20;11.50;99.90
64951;DHT22;51482;47.014;7.652;2022-09-28T14:47:35;11.40;99.90
64951;DHT22;51482;47.014;7.652;2022-09-28T14:52:45;11.40;99.90
64951;DHT22;51482;47.014;7.652;2022-09-28T14:55:16;11.30;99.90
64951;DHT22;51482;47.014;7.652;2022-09-28T14:57:42;10.70;99.90
64951;DHT22;51482;47.014;7.652;2022-09-28T15:00:20;11.20;99.90
64951;DHT22;51482;47.014;7.652;2022-09-28T15:02:49;11.20;99.90
64951;DHT22;51482;47.014;7.652;2022-09-28T15:05:27;11.80;99.90
64951;DHT22;51482;47.014;7.652;2022-09-28T15:07:54;11.10;99.90
64951;DHT22;51482;47.014;7.652;2022-09-28T15:10:35;11.70;99.90
64951;DHT22;51482;47.014;7.652;2022-09-28T15:13:03;11.80;99.90
64951;DHT22;51482;47.014;7.652;2022-09-28T15:18:12;11.50;99.90
64951;DHT22;51482;47.014;7.652;2022-09-28T15:20:41;11.10;99.90
64951;DHT22;51482;47.014;7.652;2022-09-28T15:23:34;11.10;99.90
64951;DHT22;51482;47.014;7.652;2022-09-28T15:26:02;11.10;99.90
64951;DHT22;51482;47.014;7.652;2022-09-28T15:28:28;11.50;99.90
64951;DHT22;51482;47.014;7.652;2022-09-28T15:31:02;11.70;99.90
64951;DHT22;51482;47.014;7.652;2022-09-28T15:33:33;11.70;99.90
64951;DHT22;51482;47.014;7.652;2022-09-28T15:36:19;11.60;99.90
64951;DHT22;51482;47.014;7.652;2022-09-28T15:38:59;12.00;99.90
64951;DHT22;51482;47.014;7.652;2022-09-28T15:41:25;11.20;99.90
64951;DHT22;51482;47.014;7.652;2022-09-28T15:46:31;11.20;99.90
64951;DHT22;51482;47.014;7.652;2022-09-28T15:49:00;11.10;99.90
64951;DHT22;51482;47.014;7.652;2022-09-28T15:51:28;11.10;99.90
64951;DHT22;51482;47.014;7.652;2022-09-28T15:54:03;11.10;99.90
64951;DHT22;51482;47.014;7.652;2022-09-28T15:56:49;11.20;99.90
64951;DHT22;51482;47.014;7.652;2022-09-28T15:59:35;11.20;99.90
64951;DHT22;51482;47.014;7.652;2022-09-28T16:02:13;11.20;99.90
64951;DHT22;51482;47.014;7.652;2022-09-28T16:04:54;11.10;99.90
64951;DHT22;51482;47.014;7.652;2022-09-28T16:07:39;10.90;99.90
64951;DHT22;51482;47.014;7.652;2022-09-28T16:15:19;11.00;99.90
64951;DHT22;51482;47.014;7.652;2022-09-28T16:17:59;11.10;99.90
64951;DHT22;51482;47.014;7.652;2022-09-28T16:20:28;10.40;99.90
64951;DHT22;51482;47.014;7.652;2022-09-28T16:22:55;11.10;99.90
64951;DHT22;51482;47.014;7.652;2022-09-28T16:25:24;11.80;99.90
64951;DHT22;51482;47.014;7.652;2022-09-28T16:27:52;11.10;99.90
64951;DHT22;51482;47.014;7.652;2022-09-28T16:30:28;11.00;99.90
64951;DHT22;51482;47.014;7.652;2022-09-28T16:33:00;11.00;99.90
64951;DHT22;51482;47.014;7.652;2022-09-28T16:38:11;10.90;99.90
64951;DHT22;51482;47.014;7.652;2022-09-28T16:40:59;11.40;99.90
64951;DHT22;51482;47.014;7.652;2022-09-28T16:43:28;11.40;99.90
64951;DHT22;51482;47.014;7.652;2022-09-28T16:45:57;11.10;99.90
64951;DHT22;51482;47.014;7.652;2022-09-28T16:48:29;11.10;99.90
64951;DHT22;51482;47.014;7.652;2022-09-28T16:50:56;11.00;99.90
64951;DHT22;51482;47.014;7.652;2022-09-28T16:53:22;11.20;99.90
64951;DHT22;51482;47.014;7.652;2022-09-28T16:56:06;10.90;99.90
64951;DHT22;51482;47.014;7.652;2022-09-28T16:58:32;11.10;99.90
64951;DHT22;51482;47.014;7.652;2022-09-28T17:00:59;10.60;99.90
64951;DHT22;51482;47.014;7.652;2022-09-28T17:03:25;11.40;99.90
64951;DHT22;51482;47.014;7.652;2022-09-28T17:05:52;10.60;99.90
64951;DHT22;51482;47.014;7.652;2022-09-28T17:08:20;11.20;99.90
64951;DHT22;51482;47.014;7.652;2022-09-28T17:13:20;10.60;99.90
64951;DHT22;51482;47.014;7.652;2022-09-28T17:15:48;10.70;99.90
64951;DHT22;51482;47.014;7.652;2022-09-28T17:18:18;10.60;99.90
64951;DHT22;51482;47.014;7.652;2022-09-28T17:20:47;10.70;99.90
64951;DHT22;51482;47.014;7.652;2022-09-28T17:23:14;11.20;99.90
64951;DHT22;51482;47.014;7.652;2022-09-28T17:25:40;10.60;99.90
64951;DHT22;51482;47.014;7.652;2022-09-28T17:28:20;11.70;99.90
64951;DHT22;51482;47.014;7.652;2022-09-28T17:30:46;10.50;99.90
64951;DHT22;51482;47.014;7.652;2022-09-28T17:33:12;11.20;99.90
64951;DHT22;51482;47.014;7.652;2022-09-28T17:35:39;10.50;99.90
64951;DHT22;51482;47.014;7.652;2022-09-28T17:38:05;10.50;99.90
64951;DHT22;51482;47.014;7.652;2022-09-28T17:40:30;11.20;99.90
64951;DHT22;51482;47.014;7.652;2022-09-28T17:42:56;10.50;99.90
64951;DHT22;51482;47.014;7.652;2022-09-28T17:45:23;10.90;99.90
64951;DHT22;51482;47.014;7.652;2022-09-28T17:47:54;10.60;99.90
64951;DHT22;51482;47.014;7.652;2022-09-28T17:52:49;10.60;99.90
64951;DHT22;51482;47.014;7.652;2022-09-28T17:55:23;10.60;99.90
64951;DHT22;51482;47.014;7.652;2022-09-28T17:57:49;11.20;99.90
64951;DHT22;51482;47.014;7.652;2022-09-28T18:00:16;11.00;99.90
64951;DHT22;51482;47.014;7.652;2022-09-28T18:02:42;10.50;99.90
64951;DHT22;51482;47.014;7.652;2022-09-28T18:05:09;11.00;99.90
64951;DHT22;51482;47.014;7.652;2022-09-28T18:07:39;10.90;99.90
64951;DHT22;51482;47.014;7.652;2022-09-28T18:10:06;10.40;99.90
64951;DHT22;51482;47.014;7.652;2022-09-28T18:12:32;10.40;99.90
64951;DHT22;51482;47.014;7.652;2022-09-28T18:14:58;9.80;99.90
64951;DHT22;51482;47.014;7.652;2022-09-28T18:17:24;10.90;99.90
64951;DHT22;51482;47.014;7.652;2022-09-28T18:19:49;10.60;99.90
64951;DHT22;51482;47.014;7.652;2022-09-28T18:22:15;10.80;99.90
64951;DHT22;51482;47.014;7.652;2022-09-28T18:24:40;11.00;99.90
64951;DHT22;51482;47.014;7.652;2022-09-28T18:27:06;10.90;99.90
64951;DHT22;51482;47.014;7.652;2022-09-28T18:29:31;10.40;99.90
64951;DHT22;51482;47.014;7.652;2022-09-28T18:31:57;10.90;99.90